sensor_id;sensor_type;location;lat;lon;timestamp;temperature;humidity
22364;DHT22;11349;53.412;-1.328;2023-07-30T00:01:44;16.60;1.00
22364;DHT22;11349;53.412;-1.328;2023-07-30T00:04:10;16.50;99.90
22364;DHT22;11349;53.412;-1.328;2023-07-30T00:06:35;16.60;1.00
22364;DHT22;11349;53.412;-1.328;2023-07-30T00:09:01;16.50;99.90
22364;DHT22;11349;53.412;-1.328;2023-07-30T00:11:27;16.60;1.00
22364;DHT22;11349;53.412;-1.328;2023-07-30T00:13:53;16.60;99.90
22364;DHT22;11349;53.412;-1.328;2023-07-30T00:16:18;16.70;99.90
22364;DHT22;11349;53.412;-1.328;2023-07-30T00:18:49;16.60;1.00
22364;DHT22;11349;53.412;-1.328;2023-07-30T00:21:15;16.40;99.90
22364;DHT22;11349;53.412;-1.328;2023-07-30T00:23:41;16.20;99.90
22364;DHT22;11349;53.412;-1.328;2023-07-30T00:26:06;16.00;1.00
22364;DHT22;11349;53.412;-1.328;2023-07-30T00:28:32;16.30;28.30
22364;DHT22;11349;53.412;-1.328;2023-07-30T00:30:58;16.20;99.90
22364;DHT22;11349;53.412;-1.328;2023-07-30T00:33:23;16.30;99.90
22364;DHT22;11349;53.412;-1.328;2023-07-30T00:35:51;16.10;49.10
22364;DHT22;11349;53.412;-1.328;2023-07-30T00:38:18;15.90;99.90
22364;DHT22;11349;53.412;-1.328;2023-07-30T00:40:44;15.80;1.00
22364;DHT22;11349;53.412;-1.328;2023-07-30T00:43:10;15.50;99.90
22364;DHT22;11349;53.412;-1.328;2023-07-30T00:45:36;15.40;1.00
22364;DHT22;11349;53.412;-1.328;2023-07-30T00:48:04;15.30;1.00
22364;DHT22;11349;53.412;-1.328;2023-07-30T00:50:30;15.30;1.00
22364;DHT22;11349;53.412;-1.328;2023-07-30T00:52:56;15.50;99.90
22364;DHT22;11349;53.412;-1.328;2023-07-30T00:55:22;15.20;88.40
22364;DHT22;11349;53.412;-1.328;2023-07-30T00:57:48;15.20;99.90
22364;DHT22;11349;53.412;-1.328;2023-07-30T01:00:14;15.10;99.90
22364;DHT22;11349;53.412;-1.328;2023-07-30T01:02:40;15.00;99.90
22364;DHT22;11349;53.412;-1.328;2023-07-30T01:05:05;14.90;99.90
22364;DHT22;11349;53.412;-1.328;2023-07-30T01:07:32;14.90;1.00
22364;DHT22;11349;53.412;-1.328;2023-07-30T01:09:59;14.80;1.00
22364;DHT22;11349;53.412;-1.328;2023-07-30T01:12:29;14.70;1.00
22364;DHT22;11349;53.412;-1.328;2023-07-30T01:14:56;15.00;1.00
22364;DHT22;11349;53.412;-1.328;2023-07-30T01:17:23;15.20;99.90
22364;DHT22;11349;53.412;-1.328;2023-07-30T01:19:49;15.30;99.90
22364;DHT22;11349;53.412;-1.328;2023-07-30T01:22:20;15.40;1.00
22364;DHT22;11349;53.412;-1.328;2023-07-30T01:24:47;15.80;73.80
22364;DHT22;11349;53.412;-1.328;2023-07-30T01:27:19;15.70;99.90
22364;DHT22;11349;53.412;-1.328;2023-07-30T01:32:34;15.20;99.90
22364;DHT22;11349;53.412;-1.328;2023-07-30T01:35:01;15.10;99.90
22364;DHT22;11349;53.412;-1.328;2023-07-30T01:37:29;14.90;1.00
22364;DHT22;11349;53.412;-1.328;2023-07-30T01:39:55;14.90;99.90
22364;DHT22;11349;53.412;-1.328;2023-07-30T01:42:21;15.20;1.00
22364;DHT22;11349;53.412;-1.328;2023-07-30T01:44:47;15.30;62.10
22364;DHT22;11349;53.412;-1.328;2023-07-30T01:47:13;15.20;99.90
22364;DHT22;11349;53.412;-1.328;2023-07-30T01:49:38;15.40;99.90
22364;DHT22;11349;53.412;-1.328;2023-07-30T01:52:04;15.80;1.00
22364;DHT22;11349;53.412;-1.328;2023-07-30T01:54:30;15.90;99.90
22364;DHT22;11349;53.412;-1.328;2023-07-30T01:56:56;16.10;99.90
22364;DHT22;11349;53.412;-1.328;2023-07-30T01:59:21;16.10;99.90
22364;DHT22;11349;53.412;-1.328;2023-07-30T02:01:47;16.20;99.90
22364;DHT22;11349;53.412;-1.328;2023-07-30T02:04:13;16.10;17.60
22364;DHT22;11349;53.412;-1.328;2023-07-30T02:06:38;16.20;1.00
22364;DHT22;11349;53.412;-1.328;2023-07-30T02:09:04;16.10;99.90
22364;DHT22;11349;53.412;-1.328;2023-07-30T02:11:30;16.30;99.90
22364;DHT22;11349;53.412;-1.328;2023-07-30T02:13:56;16.30;99.90
22364;DHT22;11349;53.412;-1.328;2023-07-30T02:16:24;16.50;1.00
22364;DHT22;11349;53.412;-1.328;2023-07-30T02:18:50;16.30;99.90
22364;DHT22;11349;53.412;-1.328;2023-07-30T02:21:15;16.40;99.90
22364;DHT22;11349;53.412;-1.328;2023-07-30T02:23:41;16.20;1.00
22364;DHT22;11349;53.412;-1.328;2023-07-30T02:26:07;16.20;99.90
22364;DHT22;11349;53.412;-1.328;2023-07-30T02:28:33;16.50;1.00
22364;DHT22;11349;53.412;-1.328;2023-07-30T02:30:58;16.60;1.00
22364;DHT22;11349;53.412;-1.328;2023-07-30T02:33:24;16.50;99.90
22364;DHT22;11349;53.412;-1.328;2023-07-30T02:35:50;16.50;1.00
22364;DHT22;11349;53.412;-1.328;2023-07-30T02:38:15;16.40;1.00
22364;DHT22;11349;53.412;-1.328;2023-07-30T02:40:41;16.70;1.00
22364;DHT22;11349;53.412;-1.328;2023-07-30T02:43:07;16.60;73.70
22364;DHT22;11349;53.412;-1.328;2023-07-30T02:45:33;16.60;1.00
22364;DHT22;11349;53.412;-1.328;2023-07-30T02:47:58;16.50;99.90
22364;DHT22;11349;53.412;-1.328;2023-07-30T02:50:24;16.30;99.90
22364;DHT22;11349;53.412;-1.328;2023-07-30T02:52:50;16.60;85.70
22364;DHT22;11349;53.412;-1.328;2023-07-30T02:55:15;16.40;99.90
22364;DHT22;11349;53.412;-1.328;2023-07-30T02:57:41;16.50;99.90
22364;DHT22;11349;53.412;-1.328;2023-07-30T03:00:07;16.60;99.90
22364;DHT22;11349;53.412;-1.328;2023-07-30T03:02:34;16.60;99.90
22364;DHT22;11349;53.412;-1.328;2023-07-30T03:05:00;16.70;99.90
22364;DHT22;11349;53.412;-1.328;2023-07-30T03:07:26;16.60;1.00
22364;DHT22;11349;53.412;-1.328;2023-07-30T03:09:52;16.40;99.90
22364;DHT22;11349;53.412;-1.328;2023-07-30T03:12:17;16.40;99.90
22364;DHT22;11349;53.412;-1.328;2023-07-30T03:14:43;16.30;31.90
22364;DHT22;11349;53.412;-1.328;2023-07-30T03:17:09;16.30;68.40
22364;DHT22;11349;53.412;-1.328;2023-07-30T03:19:34;16.20;99.90
22364;DHT22;11349;53.412;-1.328;2023-07-30T03:22:00;16.50;99.90
22364;DHT22;11349;53.412;-1.328;2023-07-30T03:24:26;16.30;17.70
22364;DHT22;11349;53.412;-1.328;2023-07-30T03:26:51;16.30;99.90
22364;DHT22;11349;53.412;-1.328;2023-07-30T03:29:17;16.10;1.00
22364;DHT22;11349;53.412;-1.328;2023-07-30T03:31:43;16.30;99.90
22364;DHT22;11349;53.412;-1.328;2023-07-30T03:34:09;16.20;1.00
22364;DHT22;11349;53.412;-1.328;2023-07-30T03:36:34;16.00;99.90
22364;DHT22;11349;53.412;-1.328;2023-07-30T03:39:00;15.90;99.90
22364;DHT22;11349;53.412;-1.328;2023-07-30T03:41:26;16.10;1.00
22364;DHT22;11349;53.412;-1.328;2023-07-30T03:43:52;16.00;99.90
22364;DHT22;11349;53.412;-1.328;2023-07-30T03:46:17;16.00;99.90
22364;DHT22;11349;53.412;-1.328;2023-07-30T03:48:43;15.90;99.40
22364;DHT22;11349;53.412;-1.328;2023-07-30T03:51:09;15.90;4.00
22364;DHT22;11349;53.412;-1.328;2023-07-30T03:53:35;15.90;99.90
22364;DHT22;11349;53.412;-1.328;2023-07-30T03:56:01;16.00;99.90
22364;DHT22;11349;53.412;-1.328;2023-07-30T03:58:27;15.90;99.90
22364;DHT22;11349;53.412;-1.328;2023-07-30T04:00:53;16.00;99.90
22364;DHT22;11349;53.412;-1.328;2023-07-30T04:03:18;16.00;99.90
22364;DHT22;11349;53.412;-1.328;2023-07-30T04:05:44;16.10;1.00
22364;DHT22;11349;53.412;-1.328;2023-07-30T04:08:10;16.20;21.30
22364;DHT22;11349;53.412;-1.328;2023-07-30T04:10:35;16.20;1.00
22364;DHT22;11349;53.412;-1.328;2023-07-30T04:13:01;16.20;1.00
22364;DHT22;11349;53.412;-1.328;2023-07-30T04:15:27;16.20;99.90
22364;DHT22;11349;53.412;-1.328;2023-07-30T04:17:53;16.40;99.90
22364;DHT22;11349;53.412;-1.328;2023-07-30T04:20:19;16.30;42.70
22364;DHT22;11349;53.412;-1.328;2023-07-30T04:22:47;16.20;1.00
22364;DHT22;11349;53.412;-1.328;2023-07-30T04:25:12;16.20;11.30
22364;DHT22;11349;53.412;-1.328;2023-07-30T04:27:38;16.10;1.00
22364;DHT22;11349;53.412;-1.328;2023-07-30T04:30:07;16.40;99.90
22364;DHT22;11349;53.412;-1.328;2023-07-30T04:32:33;16.40;99.90
22364;DHT22;11349;53.412;-1.328;2023-07-30T04:35:00;16.40;99.90
22364;DHT22;11349;53.412;-1.328;2023-07-30T04:37:26;16.40;99.90
22364;DHT22;11349;53.412;-1.328;2023-07-30T04:39:52;16.20;1.00
22364;DHT22;11349;53.412;-1.328;2023-07-30T04:42:17;16.20;99.90
22364;DHT22;11349;53.412;-1.328;2023-07-30T04:44:44;16.00;99.90
22364;DHT22;11349;53.412;-1.328;2023-07-30T04:47:09;15.90;99.90
22364;DHT22;11349;53.412;-1.328;2023-07-30T04:49:35;16.10;1.00
22364;DHT22;11349;53.412;-1.328;2023-07-30T04:52:03;16.20;1.00
22364;DHT22;11349;53.412;-1.328;2023-07-30T04:54:28;16.30;74.10
22364;DHT22;11349;53.412;-1.328;2023-07-30T04:56:54;16.30;99.90
22364;DHT22;11349;53.412;-1.328;2023-07-30T04:59:20;16.20;99.90
22364;DHT22;11349;53.412;-1.328;2023-07-30T05:01:46;15.90;1.00
22364;DHT22;11349;53.412;-1.328;2023-07-30T05:04:11;16.00;99.90
22364;DHT22;11349;53.412;-1.328;2023-07-30T05:06:37;16.10;99.90
22364;DHT22;11349;53.412;-1.328;2023-07-30T05:09:03;16.40;17.20
22364;DHT22;11349;53.412;-1.328;2023-07-30T05:11:29;16.10;99.90
22364;DHT22;11349;53.412;-1.328;2023-07-30T05:13:55;16.30;99.90
22364;DHT22;11349;53.412;-1.328;2023-07-30T05:16:20;16.50;99.90
22364;DHT22;11349;53.412;-1.328;2023-07-30T05:18:47;16.50;1.00
22364;DHT22;11349;53.412;-1.328;2023-07-30T05:21:13;16.70;1.00
22364;DHT22;11349;53.412;-1.328;2023-07-30T05:23:38;16.80;1.00
22364;DHT22;11349;53.412;-1.328;2023-07-30T05:26:04;16.60;1.00
22364;DHT22;11349;53.412;-1.328;2023-07-30T05:28:30;16.50;1.00
22364;DHT22;11349;53.412;-1.328;2023-07-30T05:30:55;16.50;17.20
22364;DHT22;11349;53.412;-1.328;2023-07-30T05:33:21;16.50;1.00
22364;DHT22;11349;53.412;-1.328;2023-07-30T05:35:47;16.50;1.00
22364;DHT22;11349;53.412;-1.328;2023-07-30T05:38:13;16.70;99.90
22364;DHT22;11349;53.412;-1.328;2023-07-30T05:40:39;16.40;99.90
22364;DHT22;11349;53.412;-1.328;2023-07-30T05:43:05;16.40;1.30
22364;DHT22;11349;53.412;-1.328;2023-07-30T05:45:30;16.50;88.40
22364;DHT22;11349;53.412;-1.328;2023-07-30T05:47:56;16.40;82.70
22364;DHT22;11349;53.412;-1.328;2023-07-30T05:50:22;16.70;99.90
22364;DHT22;11349;53.412;-1.328;2023-07-30T05:52:47;16.80;99.90
22364;DHT22;11349;53.412;-1.328;2023-07-30T05:55:13;16.60;18.20
22364;DHT22;11349;53.412;-1.328;2023-07-30T05:57:39;16.60;1.00
22364;DHT22;11349;53.412;-1.328;2023-07-30T06:00:05;16.70;1.00
22364;DHT22;11349;53.412;-1.328;2023-07-30T06:02:31;16.90;99.90
22364;DHT22;11349;53.412;-1.328;2023-07-30T06:04:57;16.90;99.90
22364;DHT22;11349;53.412;-1.328;2023-07-30T06:07:23;17.00;1.00
22364;DHT22;11349;53.412;-1.328;2023-07-30T06:09:49;17.00;1.00
22364;DHT22;11349;53.412;-1.328;2023-07-30T06:12:15;17.00;99.90
22364;DHT22;11349;53.412;-1.328;2023-07-30T06:14:40;16.70;1.00
22364;DHT22;11349;53.412;-1.328;2023-07-30T06:17:06;17.00;99.90
22364;DHT22;11349;53.412;-1.328;2023-07-30T06:19:32;17.00;1.00
22364;DHT22;11349;53.412;-1.328;2023-07-30T06:21:57;17.00;1.00
22364;DHT22;11349;53.412;-1.328;2023-07-30T06:24:23;16.70;1.00
22364;DHT22;11349;53.412;-1.328;2023-07-30T06:26:49;17.00;99.90
22364;DHT22;11349;53.412;-1.328;2023-07-30T06:29:15;16.90;1.00
22364;DHT22;11349;53.412;-1.328;2023-07-30T06:31:40;17.00;99.90
22364;DHT22;11349;53.412;-1.328;2023-07-30T06:34:06;17.20;1.00
22364;DHT22;11349;53.412;-1.328;2023-07-30T06:36:32;17.20;3.80
22364;DHT22;11349;53.412;-1.328;2023-07-30T06:38:57;17.00;1.00
22364;DHT22;11349;53.412;-1.328;2023-07-30T06:41:23;17.10;1.00
22364;DHT22;11349;53.412;-1.328;2023-07-30T06:43:49;17.30;37.80
22364;DHT22;11349;53.412;-1.328;2023-07-30T06:46:14;17.50;1.00
22364;DHT22;11349;53.412;-1.328;2023-07-30T06:48:40;17.30;1.00
22364;DHT22;11349;53.412;-1.328;2023-07-30T06:51:06;17.30;99.90
22364;DHT22;11349;53.412;-1.328;2023-07-30T06:53:33;17.40;1.00
22364;DHT22;11349;53.412;-1.328;2023-07-30T06:55:59;17.50;1.00
22364;DHT22;11349;53.412;-1.328;2023-07-30T06:58:24;17.30;99.90
22364;DHT22;11349;53.412;-1.328;2023-07-30T07:00:50;17.30;1.00
22364;DHT22;11349;53.412;-1.328;2023-07-30T07:03:17;17.50;1.00
22364;DHT22;11349;53.412;-1.328;2023-07-30T07:05:42;17.20;1.00
22364;DHT22;11349;53.412;-1.328;2023-07-30T07:08:11;17.30;99.90
22364;DHT22;11349;53.412;-1.328;2023-07-30T07:10:36;17.20;1.00
22364;DHT22;11349;53.412;-1.328;2023-07-30T07:13:02;17.30;1.00
22364;DHT22;11349;53.412;-1.328;2023-07-30T07:15:28;16.80;1.00
22364;DHT22;11349;53.412;-1.328;2023-07-30T07:17:53;16.70;1.00
22364;DHT22;11349;53.412;-1.328;2023-07-30T07:20:19;17.00;99.90
22364;DHT22;11349;53.412;-1.328;2023-07-30T07:22:45;16.90;1.00
22364;DHT22;11349;53.412;-1.328;2023-07-30T07:25:10;17.00;99.90
22364;DHT22;11349;53.412;-1.328;2023-07-30T07:27:36;16.80;1.00
22364;DHT22;11349;53.412;-1.328;2023-07-30T07:30:02;16.80;1.00
22364;DHT22;11349;53.412;-1.328;2023-07-30T07:32:28;16.70;55.40
22364;DHT22;11349;53.412;-1.328;2023-07-30T07:34:54;16.70;99.90
22364;DHT22;11349;53.412;-1.328;2023-07-30T07:37:20;17.00;99.90
22364;DHT22;11349;53.412;-1.328;2023-07-30T07:39:46;16.90;99.90
22364;DHT22;11349;53.412;-1.328;2023-07-30T07:42:15;16.90;99.90
22364;DHT22;11349;53.412;-1.328;2023-07-30T07:44:40;16.90;99.90
22364;DHT22;11349;53.412;-1.328;2023-07-30T07:47:07;16.90;1.00
22364;DHT22;11349;53.412;-1.328;2023-07-30T07:49:33;17.00;1.00
22364;DHT22;11349;53.412;-1.328;2023-07-30T07:51:58;16.70;99.90
22364;DHT22;11349;53.412;-1.328;2023-07-30T07:54:24;16.60;99.90
22364;DHT22;11349;53.412;-1.328;2023-07-30T07:56:50;16.50;99.90
22364;DHT22;11349;53.412;-1.328;2023-07-30T07:59:16;16.60;1.00
22364;DHT22;11349;53.412;-1.328;2023-07-30T08:01:41;16.80;99.90
22364;DHT22;11349;53.412;-1.328;2023-07-30T08:04:07;17.00;99.90
22364;DHT22;11349;53.412;-1.328;2023-07-30T08:06:33;16.90;29.60
22364;DHT22;11349;53.412;-1.328;2023-07-30T08:08:58;16.80;5.30
22364;DHT22;11349;53.412;-1.328;2023-07-30T08:11:24;16.70;99.90
22364;DHT22;11349;53.412;-1.328;2023-07-30T08:13:50;16.50;99.90
22364;DHT22;11349;53.412;-1.328;2023-07-30T08:16:15;16.50;99.90
22364;DHT22;11349;53.412;-1.328;2023-07-30T08:18:41;16.50;99.90
22364;DHT22;11349;53.412;-1.328;2023-07-30T08:21:07;16.50;1.00
22364;DHT22;11349;53.412;-1.328;2023-07-30T08:23:32;16.50;99.90
22364;DHT22;11349;53.412;-1.328;2023-07-30T08:25:58;16.50;3.30
22364;DHT22;11349;53.412;-1.328;2023-07-30T08:28:24;16.90;17.40
22364;DHT22;11349;53.412;-1.328;2023-07-30T08:30:49;17.10;99.90
22364;DHT22;11349;53.412;-1.328;2023-07-30T08:33:15;17.60;1.00
22364;DHT22;11349;53.412;-1.328;2023-07-30T08:35:41;17.90;1.00
22364;DHT22;11349;53.412;-1.328;2023-07-30T08:38:06;17.80;1.00
22364;DHT22;11349;53.412;-1.328;2023-07-30T08:40:32;17.80;99.90
22364;DHT22;11349;53.412;-1.328;2023-07-30T08:42:59;17.90;1.00
22364;DHT22;11349;53.412;-1.328;2023-07-30T08:45:25;17.90;1.00
22364;DHT22;11349;53.412;-1.328;2023-07-30T08:47:51;17.70;99.90
22364;DHT22;11349;53.412;-1.328;2023-07-30T08:50:17;17.50;97.50
22364;DHT22;11349;53.412;-1.328;2023-07-30T08:52:43;17.40;99.90
22364;DHT22;11349;53.412;-1.328;2023-07-30T08:55:10;17.50;99.90
22364;DHT22;11349;53.412;-1.328;2023-07-30T08:57:37;17.60;99.90
22364;DHT22;11349;53.412;-1.328;2023-07-30T09:00:11;17.60;99.90
22364;DHT22;11349;53.412;-1.328;2023-07-30T09:05:09;17.60;99.90
22364;DHT22;11349;53.412;-1.328;2023-07-30T09:07:37;17.50;1.00
22364;DHT22;11349;53.412;-1.328;2023-07-30T09:10:03;17.70;99.90
22364;DHT22;11349;53.412;-1.328;2023-07-30T09:12:30;17.60;1.00
22364;DHT22;11349;53.412;-1.328;2023-07-30T09:14:56;17.50;1.00
22364;DHT22;11349;53.412;-1.328;2023-07-30T09:17:22;17.80;99.90
22364;DHT22;11349;53.412;-1.328;2023-07-30T09:19:48;18.20;1.00
22364;DHT22;11349;53.412;-1.328;2023-07-30T09:22:30;18.50;99.90
22364;DHT22;11349;53.412;-1.328;2023-07-30T09:24:56;18.40;99.90
22364;DHT22;11349;53.412;-1.328;2023-07-30T09:27:24;18.40;99.90
22364;DHT22;11349;53.412;-1.328;2023-07-30T09:29:54;18.50;1.00
22364;DHT22;11349;53.412;-1.328;2023-07-30T09:32:24;18.70;99.90
22364;DHT22;11349;53.412;-1.328;2023-07-30T09:34:50;18.90;99.90
22364;DHT22;11349;53.412;-1.328;2023-07-30T09:37:17;19.00;1.20
22364;DHT22;11349;53.412;-1.328;2023-07-30T09:39:43;19.10;1.00
22364;DHT22;11349;53.412;-1.328;2023-07-30T09:42:09;19.00;1.00
22364;DHT22;11349;53.412;-1.328;2023-07-30T09:44:37;19.10;1.00
22364;DHT22;11349;53.412;-1.328;2023-07-30T09:47:03;19.10;1.00
22364;DHT22;11349;53.412;-1.328;2023-07-30T09:49:31;19.20;1.00
22364;DHT22;11349;53.412;-1.328;2023-07-30T09:52:00;19.30;99.90
22364;DHT22;11349;53.412;-1.328;2023-07-30T09:54:27;19.20;99.90
22364;DHT22;11349;53.412;-1.328;2023-07-30T09:56:52;19.30;99.90
22364;DHT22;11349;53.412;-1.328;2023-07-30T09:59:18;19.30;99.90
22364;DHT22;11349;53.412;-1.328;2023-07-30T10:01:48;19.30;99.90
22364;DHT22;11349;53.412;-1.328;2023-07-30T10:04:15;19.30;99.90
22364;DHT22;11349;53.412;-1.328;2023-07-30T10:07:04;19.20;99.90
22364;DHT22;11349;53.412;-1.328;2023-07-30T10:09:35;19.10;99.90
22364;DHT22;11349;53.412;-1.328;2023-07-30T10:12:20;19.20;99.90
22364;DHT22;11349;53.412;-1.328;2023-07-30T10:14:47;19.20;1.00
22364;DHT22;11349;53.412;-1.328;2023-07-30T10:17:18;19.30;99.90
22364;DHT22;11349;53.412;-1.328;2023-07-30T10:19:49;19.30;99.90
22364;DHT22;11349;53.412;-1.328;2023-07-30T10:25:02;19.40;99.90
22364;DHT22;11349;53.412;-1.328;2023-07-30T10:27:38;19.50;99.90
22364;DHT22;11349;53.412;-1.328;2023-07-30T10:32:40;19.60;93.40
22364;DHT22;11349;53.412;-1.328;2023-07-30T10:35:06;19.50;99.90
22364;DHT22;11349;53.412;-1.328;2023-07-30T10:37:32;19.60;99.90
22364;DHT22;11349;53.412;-1.328;2023-07-30T10:39:58;19.50;99.90
22364;DHT22;11349;53.412;-1.328;2023-07-30T10:42:23;19.70;99.90
22364;DHT22;11349;53.412;-1.328;2023-07-30T10:44:52;19.70;1.00
22364;DHT22;11349;53.412;-1.328;2023-07-30T10:47:18;19.80;62.00
22364;DHT22;11349;53.412;-1.328;2023-07-30T10:49:43;19.80;99.90
22364;DHT22;11349;53.412;-1.328;2023-07-30T10:52:09;19.90;1.00
22364;DHT22;11349;53.412;-1.328;2023-07-30T10:54:36;19.90;1.00
22364;DHT22;11349;53.412;-1.328;2023-07-30T10:57:05;20.00;99.90
22364;DHT22;11349;53.412;-1.328;2023-07-30T10:59:37;20.10;1.00
22364;DHT22;11349;53.412;-1.328;2023-07-30T11:02:04;20.10;1.00
22364;DHT22;11349;53.412;-1.328;2023-07-30T11:04:34;20.20;99.90
22364;DHT22;11349;53.412;-1.328;2023-07-30T11:07:00;20.20;14.90
22364;DHT22;11349;53.412;-1.328;2023-07-30T11:09:27;20.10;99.90
22364;DHT22;11349;53.412;-1.328;2023-07-30T11:11:54;20.20;1.00
22364;DHT22;11349;53.412;-1.328;2023-07-30T11:14:22;20.00;99.90
22364;DHT22;11349;53.412;-1.328;2023-07-30T11:17:06;20.10;31.30
22364;DHT22;11349;53.412;-1.328;2023-07-30T11:19:32;20.20;99.90
22364;DHT22;11349;53.412;-1.328;2023-07-30T11:21:59;20.20;99.90
22364;DHT22;11349;53.412;-1.328;2023-07-30T11:24:37;20.20;91.70
22364;DHT22;11349;53.412;-1.328;2023-07-30T11:27:04;20.10;1.00
22364;DHT22;11349;53.412;-1.328;2023-07-30T11:29:30;20.20;99.90
22364;DHT22;11349;53.412;-1.328;2023-07-30T11:31:57;20.30;1.00
22364;DHT22;11349;53.412;-1.328;2023-07-30T11:34:26;20.30;1.00
22364;DHT22;11349;53.412;-1.328;2023-07-30T11:36:53;20.30;99.90
22364;DHT22;11349;53.412;-1.328;2023-07-30T11:39:19;20.30;1.00
22364;DHT22;11349;53.412;-1.328;2023-07-30T11:41:45;20.40;1.00
22364;DHT22;11349;53.412;-1.328;2023-07-30T11:44:33;20.30;1.00
22364;DHT22;11349;53.412;-1.328;2023-07-30T11:47:00;20.30;1.00
22364;DHT22;11349;53.412;-1.328;2023-07-30T11:49:25;20.40;99.90
22364;DHT22;11349;53.412;-1.328;2023-07-30T11:51:51;20.40;99.90
22364;DHT22;11349;53.412;-1.328;2023-07-30T11:54:29;20.40;99.90
22364;DHT22;11349;53.412;-1.328;2023-07-30T11:56:56;20.40;39.30
22364;DHT22;11349;53.412;-1.328;2023-07-30T11:59:22;20.50;1.00
22364;DHT22;11349;53.412;-1.328;2023-07-30T12:01:48;20.50;1.00
22364;DHT22;11349;53.412;-1.328;2023-07-30T12:04:14;20.50;1.00
22364;DHT22;11349;53.412;-1.328;2023-07-30T12:06:45;20.30;1.00
22364;DHT22;11349;53.412;-1.328;2023-07-30T12:09:12;20.50;99.90
22364;DHT22;11349;53.412;-1.328;2023-07-30T12:11:52;20.60;99.90
22364;DHT22;11349;53.412;-1.328;2023-07-30T12:14:19;20.60;1.00
22364;DHT22;11349;53.412;-1.328;2023-07-30T12:16:46;20.70;80.00
22364;DHT22;11349;53.412;-1.328;2023-07-30T12:19:12;20.60;1.00
22364;DHT22;11349;53.412;-1.328;2023-07-30T12:21:38;20.50;1.00
22364;DHT22;11349;53.412;-1.328;2023-07-30T12:24:04;20.50;1.00
22364;DHT22;11349;53.412;-1.328;2023-07-30T12:26:30;20.60;99.90
22364;DHT22;11349;53.412;-1.328;2023-07-30T12:28:56;20.60;99.90
22364;DHT22;11349;53.412;-1.328;2023-07-30T12:31:22;20.70;17.30
22364;DHT22;11349;53.412;-1.328;2023-07-30T12:33:47;20.70;99.90
22364;DHT22;11349;53.412;-1.328;2023-07-30T12:36:13;20.70;99.90
22364;DHT22;11349;53.412;-1.328;2023-07-30T12:38:39;20.70;1.00
22364;DHT22;11349;53.412;-1.328;2023-07-30T12:41:05;20.70;1.00
22364;DHT22;11349;53.412;-1.328;2023-07-30T12:43:31;20.80;1.00
22364;DHT22;11349;53.412;-1.328;2023-07-30T12:46:00;20.90;1.00
22364;DHT22;11349;53.412;-1.328;2023-07-30T12:48:26;20.90;99.90
22364;DHT22;11349;53.412;-1.328;2023-07-30T12:50:52;20.90;99.90
22364;DHT22;11349;53.412;-1.328;2023-07-30T12:53:18;20.90;1.00
22364;DHT22;11349;53.412;-1.328;2023-07-30T12:55:44;20.80;99.90
22364;DHT22;11349;53.412;-1.328;2023-07-30T12:58:09;20.90;99.90
22364;DHT22;11349;53.412;-1.328;2023-07-30T13:00:35;20.70;99.90
22364;DHT22;11349;53.412;-1.328;2023-07-30T13:03:01;20.70;1.00
22364;DHT22;11349;53.412;-1.328;2023-07-30T13:05:27;20.70;1.00
22364;DHT22;11349;53.412;-1.328;2023-07-30T13:07:53;20.80;99.90
22364;DHT22;11349;53.412;-1.328;2023-07-30T13:10:19;20.80;1.00
22364;DHT22;11349;53.412;-1.328;2023-07-30T13:12:44;20.80;25.90
22364;DHT22;11349;53.412;-1.328;2023-07-30T13:15:10;20.70;99.90
22364;DHT22;11349;53.412;-1.328;2023-07-30T13:17:37;20.80;99.90
22364;DHT22;11349;53.412;-1.328;2023-07-30T13:20:03;20.90;1.00
22364;DHT22;11349;53.412;-1.328;2023-07-30T13:22:29;20.80;1.00
22364;DHT22;11349;53.412;-1.328;2023-07-30T13:24:55;21.00;1.00
22364;DHT22;11349;53.412;-1.328;2023-07-30T13:27:21;21.00;99.90
22364;DHT22;11349;53.412;-1.328;2023-07-30T13:29:46;20.80;99.90
22364;DHT22;11349;53.412;-1.328;2023-07-30T13:32:14;20.90;1.00
22364;DHT22;11349;53.412;-1.328;2023-07-30T13:34:40;21.00;99.90
22364;DHT22;11349;53.412;-1.328;2023-07-30T13:37:06;21.00;1.00
22364;DHT22;11349;53.412;-1.328;2023-07-30T13:39:32;21.00;1.00
22364;DHT22;11349;53.412;-1.328;2023-07-30T13:41:58;21.00;99.90
22364;DHT22;11349;53.412;-1.328;2023-07-30T13:44:24;20.80;99.90
22364;DHT22;11349;53.412;-1.328;2023-07-30T13:46:49;20.90;43.60
22364;DHT22;11349;53.412;-1.328;2023-07-30T13:49:16;21.00;99.90
22364;DHT22;11349;53.412;-1.328;2023-07-30T13:51:41;21.00;99.90
22364;DHT22;11349;53.412;-1.328;2023-07-30T13:54:07;21.00;99.90
22364;DHT22;11349;53.412;-1.328;2023-07-30T13:56:36;21.10;99.90
22364;DHT22;11349;53.412;-1.328;2023-07-30T13:59:04;21.10;99.90
22364;DHT22;11349;53.412;-1.328;2023-07-30T14:01:33;20.90;99.90
22364;DHT22;11349;53.412;-1.328;2023-07-30T14:03:59;21.00;1.00
22364;DHT22;11349;53.412;-1.328;2023-07-30T14:06:24;20.90;99.90
22364;DHT22;11349;53.412;-1.328;2023-07-30T14:08:50;21.00;99.90
22364;DHT22;11349;53.412;-1.328;2023-07-30T14:11:16;21.10;1.00
22364;DHT22;11349;53.412;-1.328;2023-07-30T14:13:41;21.10;1.00
22364;DHT22;11349;53.412;-1.328;2023-07-30T14:16:07;21.00;1.00
22364;DHT22;11349;53.412;-1.328;2023-07-30T14:18:34;21.30;1.00
22364;DHT22;11349;53.412;-1.328;2023-07-30T14:20:59;21.30;99.90
22364;DHT22;11349;53.412;-1.328;2023-07-30T14:23:25;21.30;99.90
22364;DHT22;11349;53.412;-1.328;2023-07-30T14:25:51;21.30;99.90
22364;DHT22;11349;53.412;-1.328;2023-07-30T14:28:16;21.20;1.00
22364;DHT22;11349;53.412;-1.328;2023-07-30T14:30:42;21.30;1.00
22364;DHT22;11349;53.412;-1.328;2023-07-30T14:33:13;21.40;1.00
22364;DHT22;11349;53.412;-1.328;2023-07-30T14:35:39;21.30;1.00
22364;DHT22;11349;53.412;-1.328;2023-07-30T14:38:06;21.40;7.90
22364;DHT22;11349;53.412;-1.328;2023-07-30T14:40:32;21.30;4.40
22364;DHT22;11349;53.412;-1.328;2023-07-30T14:42:58;21.30;28.30
22364;DHT22;11349;53.412;-1.328;2023-07-30T14:45:24;21.30;1.00
22364;DHT22;11349;53.412;-1.328;2023-07-30T14:47:50;21.20;99.90
22364;DHT22;11349;53.412;-1.328;2023-07-30T14:50:16;21.10;99.90
22364;DHT22;11349;53.412;-1.328;2023-07-30T14:52:42;21.20;95.10
22364;DHT22;11349;53.412;-1.328;2023-07-30T14:55:08;21.30;1.00
22364;DHT22;11349;53.412;-1.328;2023-07-30T14:57:34;21.30;99.90
22364;DHT22;11349;53.412;-1.328;2023-07-30T15:00:00;21.20;30.90
22364;DHT22;11349;53.412;-1.328;2023-07-30T15:02:26;21.30;1.00
22364;DHT22;11349;53.412;-1.328;2023-07-30T15:04:53;21.30;99.90
22364;DHT22;11349;53.412;-1.328;2023-07-30T15:07:19;21.10;1.00
22364;DHT22;11349;53.412;-1.328;2023-07-30T15:09:45;21.10;99.90
22364;DHT22;11349;53.412;-1.328;2023-07-30T15:12:12;21.10;1.00
22364;DHT22;11349;53.412;-1.328;2023-07-30T15:14:38;21.00;99.90
22364;DHT22;11349;53.412;-1.328;2023-07-30T15:17:04;21.20;1.00
22364;DHT22;11349;53.412;-1.328;2023-07-30T15:19:31;21.30;1.00
22364;DHT22;11349;53.412;-1.328;2023-07-30T15:21:56;21.10;1.00
22364;DHT22;11349;53.412;-1.328;2023-07-30T15:24:22;21.30;99.90
22364;DHT22;11349;53.412;-1.328;2023-07-30T15:26:48;21.20;99.90
22364;DHT22;11349;53.412;-1.328;2023-07-30T15:29:13;21.20;99.90